KRNT - Renton, Washington, USA
Distance from station: W 21mi, 33km
Updated: Wed, 05-Oct-2022 7:53pm PDT

 Wind from calm
Wind: Calm
Temperature: 57°F , 14°C
Dew Point: 54°F , 12°C
Humidity: 88%
Barometer: 30.16 inHg , 1021.3 hPa
Visibility: 7 miles , 11 km
2022/10/06 02:53 KRNT 060253Z 00000KT 7SM CLR 14/12 A3016 RMK AO2 SLP217 T01440122 53001
KBFI - Seattle/Boeing, Washington, USA
Distance from station: W 25mi, 41km
Updated: Wed, 05-Oct-2022 7:53pm PDT

 Wind from calm
Wind: Calm
Temperature: 59°F , 15°C
Dew Point: 55°F , 13°C
Humidity: 88%
Barometer: 30.16 inHg , 1021.3 hPa
Visibility: 9 miles , 14 km
Cloud details: 1800 ft
2022/10/06 02:53 KBFI 060253Z 00000KT 9SM SCT018 15/13 A3016 RMK AO2 SLP214 T01500128 53003
 
KSEA - Seattle/Metro, Washington, USA
Distance from station: W 25mi, 41km
Updated: Wed, 05-Oct-2022 8:10pm PDT
Mist, Mostly cloudy
Mist, Mostly cloudy
 Wind from NNW
Wind: NNW 3 mph , 6 km/h
Temperature: 57°F , 14°C
Dew Point: 54°F , 12°C
Humidity: 88%
Barometer: 30.17 inHg , 1021.7 hPa
Visibility: 6 miles , 10 km
Cloud details: 1300 ft
2022/10/06 03:10 KSEA 060310Z 34003KT 6SM BR BKN013 14/12 A3017 RMK AO2 T01390122
KSMP - Stampede Pass, Washington, USA
Distance from station: SE 26mi, 41km
Updated: Wed, 05-Oct-2022 7:56pm PDT

 Wind from calm
Wind: Calm
Temperature: 63°F , 17°C
Dew Point: 41°F , 5°C
Humidity: 45%
Barometer: 30.25 inHg , 1024.4 hPa
Visibility: 10 miles , 16 km
2022/10/06 02:56 KSMP 060256Z AUTO 00000KT 10SM CLR 17/05 A3025 RMK AO2 SLP220 T01720050 53007
 
KPLU - Puyallup/Thun, Washington, USA
Distance from station: SW 36mi, 59km
Updated: Wed, 05-Oct-2022 7:55pm PDT
Light drizzle, Mostly cloudy
Light drizzle, Mostly cloudy
 Wind from calm
Wind: Calm
Temperature: 55°F , 13°C
Dew Point: 55°F , 13°C
Humidity: 100%
Barometer: 30.17 inHg , 1021.7 hPa
Visibility: 3 miles , 5 km
Cloud details: 1000 ft
2300 ft
3400 ft
2022/10/06 02:55 KPLU 060255Z AUTO 00000KT 3SM -DZ FEW010 SCT023 BKN034 13/13 A3017 RMK AO2
KPAE - Everett, Washington, USA
Distance from station: NW 37mi, 60km
Updated: Wed, 05-Oct-2022 7:53pm PDT

 Wind from calm
Wind: Calm
Temperature: 57°F , 14°C
Dew Point: 52°F , 11°C
Humidity: 82%
Barometer: 30.18 inHg , 1022 hPa
Visibility: 10 miles , 16 km
2022/10/06 02:53 KPAE 060253Z 00000KT 10SM CLR 14/11 A3018 RMK AO2 SLP220 T01390111 53003
 
KTIW - Tacoma, Washington, USA
Distance from station: WSW 41mi, 66km
Updated: Wed, 05-Oct-2022 7:53pm PDT
Mist, Clear
Mist, Clear
 Wind from calm
Wind: Calm
Temperature: 55°F , 13°C
Dew Point: 54°F , 12°C
Humidity: 94%
Barometer: 30.17 inHg , 1021.7 hPa
Visibility: 6 miles , 10 km
2022/10/06 02:53 KTIW 060253Z 00000KT 6SM BR CLR 13/12 A3017 RMK AO2 SLP216 T01330117 51001
KTCM - Tacoma/Mc Chord, Washington, USA
Distance from station: SW 42mi, 67km
Updated: Wed, 05-Oct-2022 8:10pm PDT
Mist, Clear
Mist, Clear
 Wind from calm
Wind: Calm
Temperature: 50°F , 10°C
Dew Point: 50°F , 10°C
Humidity: 100%
Barometer: 30.16 inHg , 1021.3 hPa
Visibility: 5/8 mile , 1 km
2022/10/06 03:10 KTCM 060310Z AUTO 00000KT 5/8SM R34/2800V5500FT BR CLR 10/10 A3016 RMK AO2 VIS 5/8V4 SLP217 $
 
KPWT - Bremerton Ntnl, Washington, USA
Distance from station: W 45mi, 73km
Updated: Wed, 05-Oct-2022 7:56pm PDT

 Wind from calm
Wind: Calm
Temperature: 54°F , 12°C
Dew Point: 52°F , 11°C
Humidity: 94%
Barometer: 30.17 inHg , 1021.7 hPa
Visibility: 10 miles , 16 km
2022/10/06 02:56 KPWT 060256Z AUTO 00000KT 10SM CLR 12/11 A3017 RMK AO2 SLP221 6//// T01170111 53002
KGRF - Fort Lewis/Gray, Washington, USA
Distance from station: SW 48mi, 77km
Updated: Wed, 05-Oct-2022 7:55pm PDT

 Wind from S
Wind: S 3 mph , 6 km/h
Temperature: 55°F , 13°C
Dew Point: 52°F , 11°C
Humidity: 88%
Barometer: 30.14 inHg , 1020.7 hPa
Visibility: 10 miles , 16 km
2022/10/06 02:55 KGRF 060255Z AUTO 18003KT 10SM CLR 13/11 A3014 RMK AO2 SLP210 T01320113 58001 $
 
KAWO - Arlington Muni, Washington, USA
Distance from station: NNW 50mi, 80km
Updated: Wed, 05-Oct-2022 7:56pm PDT

 Wind from WNW
Wind: WNW 3 mph , 6 km/h
Temperature: 57°F , 14°C
Dew Point: 54°F , 12°C
Humidity: 88%
Barometer: 30.18 inHg , 1022 hPa
Visibility: 10 miles , 16 km
2022/10/06 02:56 KAWO 060256Z AUTO 30003KT 10SM CLR 14/12 A3018 RMK AO2 SLP223 T01390117 53007